Maytown, Alabama
Current Conditions -  °F | °C
As of 12:27 AM on Monday 26 Jan 2015 (Local Time) from KBHM Reporting Station
Overcast Overcast  
Wind Chill: 39°   Ceiling: 2100
Heat Index: 45°   Visibility: 10mi
Dew Point: 40°   Wind: 12mph
Humidity: 82%   Direction: 290°WNW
Pressure: 29.83"   Gusts: NA
Location:  33.5392°N, 87.0555°W
Report Text: KBHM 260627Z 29010KT 10SM BKN021 OVC049 07/04 A2983 RMK AO2 T00720044
Loading
Personal Weather Stations






























Interactive Weather Map New forecast layout! Learn more

10-Day Weather Forecast

Advertisements
Track Severe Weather on mobile